METAR Data
IDs: Format: Raw Decoded Include TAF

Data at: 2248 UTC 25 Oct 2021

PABL 252156Z AUTO 23006KT 10SM OVC055 M02/M05 A2931 RMK AO2 SLP925 T10221050 FZRANO
PABL 252121Z AUTO 14003KT 10SM SCT022 BKN050 OVC060 M02/M05 A2931 RMK AO2 FZRANO
PABL 252106Z AUTO 16003KT 10SM BKN022 OVC060 M03/M05 A2930 RMK AO2 FZRANO
PABL 252056Z AUTO 11003KT 10SM SCT022 OVC060 M03/M05 A2930 RMK AO2 SLP924 T10331050 52006 FZRANO
PABL 252035Z AUTO 00000KT 10SM SCT020 OVC055 M03/M06 A2930 RMK AO2 FZRANO
PABL 252020Z AUTO 15003KT 10SM BKN020 OVC055 M04/M06 A2930 RMK AO2 FZRANO
PABL 251956Z AUTO 08005KT 10SM SCT020 OVC055 M04/M06 A2930 RMK AO2 SLP923 T10441061 FZRANO
PABL 251856Z AUTO 18006KT 10SM SCT055 M04/M07 A2929 RMK AO2 SLP919 T10441067 FZRANO
PABL 251756Z AUTO 20004KT 10SM BKN055 M04/M06 A2928 RMK AO2 SLP918 T10391056 11028 21067 53002 FZRANO
PABL 251656Z AUTO 13004KT 10SM BKN055 M04/M06 A2928 RMK AO2 SLP916 T10391056 FZRANO
PABL 251556Z AUTO 16004KT 10SM CLR M04/M06 A2928 RMK AO2 SLP915 T10441056 FZRANO
PABL 251456Z AUTO 16004KT 10SM OVC042 M04/M05 A2928 RMK AO2 SLP916 T10391050 56001 FZRANO
PABL 251356Z AUTO VRB03KT 10SM BKN060 M04/M06 A2928 RMK AO2 SLP916 T10391056 FZRANO
PABL 251256Z AUTO 14006KT 10SM FEW090 M03/M04 A2928 RMK AO2 SLP916 T10281039 FZRANO
PABL 251156Z AUTO 00000KT 10SM BKN080 M07/M07 A2928 RMK AO2 SLP917 T10671072 11022 21078 58005 FZRANO
PABL 251056Z AUTO 14004KT 10SM BKN042 M07/M08 A2929 RMK AO2 SLP919 T10721083 FZRANO
PABL 250956Z AUTO 18003KT 10SM CLR M08/M09 A2929 RMK AO2 SLP920 T10781094 FZRANO
PABL 250856Z AUTO 16005KT 10SM CLR M06/M07 A2929 RMK AO2 SLP921 T10561067 55003 FZRANO
PABL 250756Z AUTO 15009KT 10SM CLR M04/M04 A2929 RMK AO2 SLP920 T10391044 400061044 FZRANO
PABL 250656Z AUTO 00000KT 10SM CLR M03/M04 A2929 RMK AO2 SLP921 T10331039 FZRANO
PABL 250626Z AUTO 00000KT 10SM SCT007 M03/M04 A2930 RMK AO2 FZRANO
PABL 250606Z AUTO 15007KT 10SM BKN005 M02/M03 A2930 RMK AO2 FZRANO
PABL 250556Z AUTO 13008KT 10SM SCT005 M02/M03 A2930 RMK AO2 SLP924 T10221028 10006 21022 56008 FZRANO
PABL 250456Z AUTO 15010KT 10SM FEW008 M02/M02 A2931 RMK AO2 SLP925 T10171022 FZRANO
PABL 250356Z AUTO 14008KT 10SM CLR M02/M03 A2931 RMK AO2 SLP928 T10171028 FZRANO
PABL 250256Z AUTO 14010KT 10SM BKN033 M01/M02 A2933 RMK AO2 SLP932 T10061017 56010 FZRANO
PABL 250156Z AUTO 15010KT 10SM SCT030 OVC036 00/M01 A2933 RMK AO2 SLP934 T00001011 FZRANO
PABL 250056Z AUTO 14011KT 10SM FEW026 BKN038 01/M01 A2934 RMK AO2 SLP938 T00061011 FZRANO
PABL 242356Z AUTO 14008KT 10SM FEW038 01/M01 A2936 RMK AO2 SLP943 60000 T00061011 10006 21033 58009 FZRANO
PABL 242256Z AUTO 14012KT 10SM OVC038 01/M01 A2937 RMK AO2 SLP946 T00061011 FZRANO
PABL 242156Z AUTO 14012KT 10SM OVC030 01/M01 A2938 RMK AO2 UPE02 SLP950 P0000 T00061011 FZRANO
PABL 242112Z AUTO 14008KT 10SM FEW009 OVC032 00/M01 A2938 RMK AO2 UPE02 P0000 FZRANO
PABL 242056Z AUTO 14009KT 10SM UP BKN009 OVC032 00/M01 A2938 RMK AO2 UPB36 SLP952 P0000 60000 T00001011 58001 FZRANO
PABL 242018Z AUTO 14007KT 10SM BKN009 OVC030 M01/M01 A2939 RMK AO2 FZRANO
PABL 241956Z AUTO 15006KT 10SM FEW007 OVC030 M01/M01 A2939 RMK AO2 SLP954 T10061011 FZRANO
PABL 241953Z AUTO 15008KT 10SM FEW007 OVC030 M01/M01 A2939 RMK AO2 FZRANO
PABL 241856Z AUTO 13005KT 10SM OVC030 M02/M03 A2939 RMK AO2 SLP953 T10221028 FZRANO
PABL 241756Z AUTO 13004KT 10SM CLR M03/M04 A2939 RMK AO2 SNE24 SLP954 P0000 60000 T10331039 11022 21033 58005 FZRANO
PABL 241656Z AUTO 13006KT 9SM -SN OVC030 M02/M03 A2940 RMK AO2 SLP958 P0000 T10221028 FZRANO
PABL 241632Z AUTO 13004KT 5SM -SN BR FEW028 BKN036 M02/M03 A2941 RMK AO2 P0000 FZRANO
PABL 241620Z AUTO 00000KT 6SM -SN BR SCT008 BKN028 BKN034 M03/M03 A2941 RMK AO2 P0000 FZRANO
PABL 241524Z AUTO 00000KT 5SM -SN BR OVC008 M02/M03 A2940 RMK AO2 P0000 FZRANO
PABL 241503Z AUTO 00000KT 4SM -SN BR BKN010 OVC016 M02/M03 A2941 RMK AO2 CIG 007V010 P0000 FZRANO
PABL 241456Z AUTO 15003KT 6SM -SN BR SCT010 OVC016 M02/M03 A2941 RMK AO2 SLP960 P0000 60000 T10221028 52003 FZRANO
PABL 241356Z AUTO 00000KT 9SM -SN OVC018 M02/M03 A2940 RMK AO2 SLP958 P0000 T10221028 FZRANO
PABL 241256Z AUTO 00000KT 7SM -SN OVC025 M03/M03 A2940 RMK AO2 SLP958 P0000 T10281033 FZRANO
PABL 241244Z AUTO 15003KT 5SM -SN BR BKN025 M02/M03 A2940 RMK AO2 P0000 FZRANO
PABL 241156Z AUTO 00000KT 3SM -SN BR FEW021 SCT027 OVC038 M02/M03 A2940 RMK AO2 SLP957 P0000 60000 T10221028 11017 21028 52009 FZRANO
PABL 241056Z AUTO 00000KT 9SM -SN BKN050 M02/M03 A2939 RMK AO2 SNB02 SLP954 P0000 T10221033 FZRANO